createdAt,value
2018-02-25T00:00:41.836Z,101198.27
2018-02-25T00:03:07.808Z,101204.31
2018-02-25T00:05:33.745Z,101200.95
2018-02-25T00:07:59.727Z,101201.10
2018-02-25T00:10:25.674Z,101199.88
2018-02-25T00:12:51.627Z,101205.30
2018-02-25T00:15:17.601Z,101195.25
2018-02-25T00:17:43.548Z,101199.26
2018-02-25T00:20:09.513Z,101201.97
2018-02-25T00:22:35.462Z,101202.33
2018-02-25T00:25:01.417Z,101198.95
2018-02-25T00:27:27.384Z,101207.56
2018-02-25T00:29:53.332Z,101205.12
2018-02-25T00:32:19.315Z,101208.98
2018-02-25T00:34:45.267Z,101205.94
2018-02-25T00:37:11.215Z,101202.23
2018-02-25T00:39:37.158Z,101199.48
2018-02-25T00:42:03.089Z,101198.53
2018-02-25T00:44:29.039Z,101205.08
2018-02-25T00:46:55.000Z,101207.77
2018-02-25T00:49:20.940Z,101204.34
2018-02-25T00:51:46.895Z,101202.69
2018-02-25T00:54:12.847Z,101201.64
2018-02-25T00:56:38.824Z,101201.55
2018-02-25T00:59:04.797Z,101203.23
2018-02-25T01:01:30.773Z,101196.66
2018-02-25T01:03:56.719Z,101195.09
2018-02-25T01:06:22.675Z,101202.00
2018-02-25T01:08:48.683Z,101201.02
2018-02-25T01:11:14.670Z,101198.72
2018-02-25T01:13:40.643Z,101203.23
2018-02-25T01:16:06.615Z,101206.36
2018-02-25T01:18:32.565Z,101201.05
2018-02-25T01:20:58.523Z,101204.16
2018-02-25T01:23:24.474Z,101198.22
2018-02-25T01:25:50.401Z,101204.30
2018-02-25T01:28:16.337Z,101207.66
2018-02-25T01:30:42.275Z,101203.82
2018-02-25T01:33:08.229Z,101206.00
2018-02-25T01:35:34.161Z,101199.48
2018-02-25T01:38:00.110Z,101193.37
2018-02-25T01:40:26.044Z,101188.34
2018-02-25T01:42:51.986Z,101192.55
2018-02-25T01:45:17.928Z,101190.12
2018-02-25T01:47:43.887Z,101187.16
2018-02-25T01:50:09.832Z,101186.56
2018-02-25T01:52:35.797Z,101190.72
2018-02-25T01:55:01.779Z,101191.23
2018-02-25T01:57:27.727Z,101184.86
2018-02-25T01:59:53.675Z,101186.05
2018-02-25T02:02:19.621Z,101181.91
2018-02-25T02:04:45.563Z,101189.84
2018-02-25T02:07:11.514Z,101184.17
2018-02-25T02:09:37.455Z,101182.67
2018-02-25T02:12:03.406Z,101185.19
2018-02-25T02:14:29.360Z,101181.94
2018-02-25T02:16:55.353Z,101183.17
2018-02-25T02:19:21.303Z,101185.44
2018-02-25T02:21:47.272Z,101187.62
2018-02-25T02:24:13.219Z,101184.97
2018-02-25T02:26:39.167Z,101187.50
2018-02-25T02:29:05.098Z,101190.33
2018-02-25T02:31:31.061Z,101180.88
2018-02-25T02:33:57.019Z,101187.70
2018-02-25T02:36:22.982Z,101181.88
2018-02-25T02:38:48.924Z,101182.95
2018-02-25T02:41:14.884Z,101189.08
2018-02-25T02:43:40.834Z,101182.59
2018-02-25T02:46:06.766Z,101184.64
2018-02-25T02:48:32.709Z,101186.88
2018-02-25T02:50:58.696Z,101192.53
2018-02-25T02:53:24.682Z,101180.39
2018-02-25T02:55:50.638Z,101183.86
2018-02-25T02:58:16.604Z,101186.66
2018-02-25T03:00:42.558Z,101181.44
2018-02-25T03:03:08.493Z,101185.31
2018-02-25T03:05:34.468Z,101185.01
2018-02-25T03:08:00.411Z,101185.17
2018-02-25T03:10:26.348Z,101169.53
2018-02-25T03:12:52.302Z,101175.31
2018-02-25T03:15:18.260Z,101177.88
2018-02-25T03:17:44.198Z,101177.16
2018-02-25T03:20:10.133Z,101173.62
2018-02-25T03:22:36.084Z,101179.27
2018-02-25T03:25:02.041Z,101177.98
2018-02-25T03:27:28.002Z,101178.03
2018-02-25T03:29:53.933Z,101180.04
2018-02-25T03:32:19.862Z,101178.53
2018-02-25T03:34:45.786Z,101174.77
2018-02-25T03:37:11.775Z,101176.78
2018-02-25T03:39:37.706Z,101165.34
2018-02-25T03:42:03.688Z,101174.52
2018-02-25T03:44:29.630Z,101179.63
2018-02-25T03:46:55.582Z,101168.48
2018-02-25T03:49:21.520Z,101172.25
2018-02-25T03:51:47.501Z,101172.74
2018-02-25T03:54:13.437Z,101169.55
2018-02-25T03:56:39.403Z,101168.52
2018-02-25T03:59:05.346Z,101168.41
2018-02-25T04:01:31.284Z,101168.43
2018-02-25T04:03:57.220Z,101164.34
2018-02-25T04:06:23.178Z,101168.21
2018-02-25T04:08:49.138Z,101168.73
2018-02-25T04:11:15.074Z,101172.19
2018-02-25T04:13:41.024Z,101173.34
2018-02-25T04:16:06.962Z,101169.72
2018-02-25T04:18:32.906Z,101173.03
2018-02-25T04:20:58.826Z,101170.87
2018-02-25T04:23:24.762Z,101173.22
2018-02-25T04:25:50.694Z,101166.08
2018-02-25T04:28:16.636Z,101170.86
2018-02-25T04:30:42.592Z,101165.59
2018-02-25T04:33:08.540Z,101167.86
2018-02-25T04:35:34.472Z,101162.79
2018-02-25T04:38:00.410Z,101163.92
2018-02-25T04:40:26.394Z,101162.09
2018-02-25T04:42:52.334Z,101162.23
2018-02-25T04:45:18.272Z,101160.72
2018-02-25T04:47:44.202Z,101158.46
2018-02-25T04:50:10.148Z,101162.42
2018-02-25T04:52:36.094Z,101165.56
2018-02-25T04:55:02.019Z,101167.03
2018-02-25T04:57:27.962Z,101165.78
2018-02-25T04:59:53.906Z,101165.70
2018-02-25T05:02:19.860Z,101168.18
2018-02-25T05:04:45.786Z,101161.12
2018-02-25T05:07:11.731Z,101165.56
2018-02-25T05:09:37.671Z,101163.24
2018-02-25T05:12:03.642Z,101160.31
2018-02-25T05:14:29.583Z,101158.73
2018-02-25T05:16:55.525Z,101163.58
2018-02-25T05:19:21.478Z,101165.23
2018-02-25T05:21:47.431Z,101160.45
2018-02-25T05:24:13.392Z,101169.89
2018-02-25T05:26:39.363Z,101163.59
2018-02-25T05:29:05.310Z,101163.47
2018-02-25T05:31:31.274Z,101163.33
2018-02-25T05:33:57.210Z,101168.59
2018-02-25T05:36:23.193Z,101165.81
2018-02-25T05:38:49.139Z,101165.52
2018-02-25T05:41:15.081Z,101170.64
2018-02-25T05:43:41.008Z,101166.06
2018-02-25T05:46:06.944Z,101163.00
2018-02-25T05:48:32.880Z,101168.34
2018-02-25T05:50:58.818Z,101168.50
2018-02-25T05:53:24.829Z,101173.75
2018-02-25T05:55:50.774Z,101180.81
2018-02-25T05:58:16.704Z,101181.92
2018-02-25T06:00:42.668Z,101185.49
2018-02-25T06:03:08.587Z,101188.25
2018-02-25T06:05:34.530Z,101183.15
2018-02-25T06:08:00.508Z,101190.46
2018-02-25T06:10:26.434Z,101195.08
2018-02-25T06:12:52.377Z,101191.77
2018-02-25T06:15:18.318Z,101196.44
2018-02-25T06:17:44.273Z,101190.66
2018-02-25T06:20:10.209Z,101198.42
2018-02-25T06:22:36.228Z,101190.93
2018-02-25T06:25:02.166Z,101190.94
2018-02-25T06:27:28.140Z,101201.03
2018-02-25T06:29:54.112Z,101196.74
2018-02-25T06:32:20.035Z,101200.09
2018-02-25T06:34:46.078Z,101199.19
2018-02-25T06:37:12.022Z,101196.76
2018-02-25T06:39:37.970Z,101202.45
2018-02-25T06:42:03.908Z,101195.23
2018-02-25T06:44:29.859Z,101200.08
2018-02-25T06:46:55.803Z,101204.38
2018-02-25T06:49:21.740Z,101203.37
2018-02-25T06:51:47.669Z,101203.86
2018-02-25T06:54:13.613Z,101202.90
2018-02-25T06:56:39.569Z,101207.16
2018-02-25T06:59:05.529Z,101206.80
2018-02-25T07:01:31.455Z,101209.83
2018-02-25T07:03:57.391Z,101216.62
2018-02-25T07:06:23.332Z,101210.34
2018-02-25T07:08:49.273Z,101216.06
2018-02-25T07:11:15.274Z,101210.42
2018-02-25T07:13:41.237Z,101222.82
2018-02-25T07:16:07.189Z,101218.73
2018-02-25T07:18:33.131Z,101220.93
2018-02-25T07:20:59.087Z,101221.32
2018-02-25T07:23:25.077Z,101221.75
2018-02-25T07:25:51.007Z,101231.23
2018-02-25T07:28:16.934Z,101229.56
2018-02-25T07:30:42.875Z,101228.60
2018-02-25T07:33:08.847Z,101227.79
2018-02-25T07:35:34.779Z,101224.88
2018-02-25T07:38:00.720Z,101230.89
2018-02-25T07:40:26.657Z,101228.31
2018-02-25T07:42:52.667Z,101226.06
2018-02-25T07:45:18.610Z,101220.99
2018-02-25T07:47:44.557Z,101220.37
2018-02-25T07:50:10.497Z,101219.61
2018-02-25T07:52:36.449Z,101219.13
2018-02-25T07:55:02.401Z,101214.30
2018-02-25T07:57:28.388Z,101224.49
2018-02-25T07:59:54.338Z,101223.60
2018-02-25T08:02:20.267Z,101223.20
2018-02-25T08:04:46.226Z,101215.36
2018-02-25T08:07:12.167Z,101228.95
2018-02-25T08:09:38.089Z,101219.67
2018-02-25T08:12:04.047Z,101223.03
2018-02-25T08:14:29.999Z,101221.34
2018-02-25T08:16:55.953Z,101221.34
2018-02-25T08:19:21.907Z,101212.51
2018-02-25T08:21:47.881Z,101221.16
2018-02-25T08:24:13.833Z,101226.52
2018-02-25T08:26:39.789Z,101220.92
2018-02-25T08:29:05.742Z,101225.84
2018-02-25T08:31:31.711Z,101226.97
2018-02-25T08:33:57.665Z,101222.09
2018-02-25T08:36:23.602Z,101216.92
2018-02-25T08:38:49.547Z,101221.08
2018-02-25T08:41:15.488Z,101218.48
2018-02-25T08:43:41.526Z,101223.16
2018-02-25T08:46:07.463Z,101221.70
2018-02-25T08:48:33.412Z,101217.61
2018-02-25T08:50:59.371Z,101220.66
2018-02-25T08:53:25.315Z,101219.91
2018-02-25T08:55:51.245Z,101214.39
2018-02-25T08:58:17.199Z,101210.80
2018-02-25T09:00:43.178Z,101214.41
2018-02-25T09:03:09.119Z,101208.55
2018-02-25T09:05:35.123Z,101210.66
2018-02-25T09:08:01.072Z,101209.69
2018-02-25T09:10:27.060Z,101212.66
2018-02-25T09:12:53.007Z,101209.62
2018-02-25T09:15:18.952Z,101214.47
2018-02-25T09:17:44.886Z,101210.70
2018-02-25T09:20:10.825Z,101200.53
2018-02-25T09:22:36.771Z,101202.59
2018-02-25T09:25:02.716Z,101198.33
2018-02-25T09:27:28.667Z,101202.75
2018-02-25T09:29:54.606Z,101204.86
2018-02-25T09:32:21.800Z,101197.09
2018-02-25T09:34:47.721Z,101204.07
2018-02-25T09:37:13.667Z,101202.91
2018-02-25T09:39:39.678Z,101197.20
2018-02-25T09:42:05.652Z,101201.97
2018-02-25T09:44:31.609Z,101198.75
2018-02-25T09:46:57.575Z,101187.36
2018-02-25T09:49:23.540Z,101195.77
2018-02-25T09:51:49.516Z,101186.19
2018-02-25T09:54:15.466Z,101174.83
2018-02-25T09:56:41.407Z,101184.29
2018-02-25T09:59:07.375Z,101182.86
2018-02-25T10:01:33.361Z,101178.56
2018-02-25T10:03:59.317Z,101179.27
2018-02-25T10:06:25.271Z,101184.84
2018-02-25T10:08:51.243Z,101181.80
2018-02-25T10:11:17.193Z,101178.38
2018-02-25T10:13:43.146Z,101180.94
2018-02-25T10:16:09.141Z,101173.28
2018-02-25T10:18:35.079Z,101176.07
2018-02-25T10:21:01.041Z,101175.11
2018-02-25T10:23:27.006Z,101175.59
2018-02-25T10:25:52.968Z,101173.05
2018-02-25T10:28:18.969Z,101166.88
2018-02-25T10:30:44.919Z,101170.25
2018-02-25T10:33:10.855Z,101165.27
2018-02-25T10:35:36.841Z,101165.45
2018-02-25T10:38:02.784Z,101161.57
2018-02-25T10:40:28.731Z,101158.11
2018-02-25T10:42:54.671Z,101155.30
2018-02-25T10:45:20.607Z,101149.63
2018-02-25T10:47:46.570Z,101148.00
2018-02-25T10:50:12.524Z,101140.33
2018-02-25T10:52:38.447Z,101124.20
2018-02-25T10:55:04.402Z,101136.53
2018-02-25T10:57:30.358Z,101126.32
2018-02-25T10:59:56.290Z,101120.39
2018-02-25T11:02:22.243Z,101124.25
2018-02-25T11:04:48.183Z,101111.25
2018-02-25T11:07:14.134Z,101116.31
2018-02-25T11:09:40.109Z,101101.27
2018-02-25T11:12:06.079Z,101101.98
2018-02-25T11:14:32.121Z,101103.03
2018-02-25T11:16:58.141Z,101104.02
2018-02-25T11:19:24.108Z,101097.42
2018-02-25T11:21:50.056Z,101090.97
2018-02-25T11:24:16.016Z,101096.35
2018-02-25T11:26:41.968Z,101100.87
2018-02-25T11:29:07.934Z,101088.00
2018-02-25T11:31:33.970Z,101089.88
2018-02-25T11:33:59.864Z,101097.05
2018-02-25T11:36:25.802Z,101088.96
2018-02-25T11:38:51.784Z,101075.75
2018-02-25T11:41:17.700Z,101084.12
2018-02-25T11:43:43.638Z,101072.89
2018-02-25T11:46:09.601Z,101074.67
2018-02-25T11:48:35.684Z,101077.25
2018-02-25T11:51:01.632Z,101078.30
2018-02-25T11:53:27.585Z,101078.07
2018-02-25T11:55:53.524Z,101068.80
2018-02-25T11:58:19.467Z,101081.79
2018-02-25T12:00:45.407Z,101063.58
2018-02-25T12:03:11.360Z,101062.54
2018-02-25T12:05:37.317Z,101069.38
2018-02-25T12:08:03.292Z,101057.50
2018-02-25T12:10:29.266Z,101061.92
2018-02-25T12:12:55.214Z,101053.51
2018-02-25T12:15:21.180Z,101055.58
2018-02-25T12:17:47.116Z,101058.98
2018-02-25T12:20:13.092Z,101055.18
2018-02-25T12:22:39.042Z,101042.09
2018-02-25T12:25:05.012Z,101051.38
2018-02-25T12:27:30.945Z,101039.13
2018-02-25T12:29:56.900Z,101040.42
2018-02-25T12:32:22.850Z,101035.97
2018-02-25T12:34:48.794Z,101035.61
2018-02-25T12:37:14.734Z,101034.64
2018-02-25T12:39:40.810Z,101031.16
2018-02-25T12:42:06.765Z,101027.94
2018-02-25T12:44:32.795Z,101025.84
2018-02-25T12:46:58.807Z,101028.19
2018-02-25T12:49:24.774Z,101020.55
2018-02-25T12:51:50.782Z,101020.57
2018-02-25T12:54:16.928Z,101022.03
2018-02-25T12:56:42.880Z,101013.97
2018-02-25T12:59:08.837Z,101015.19
2018-02-25T13:01:34.815Z,101007.72
2018-02-25T13:04:00.774Z,100996.73
2018-02-25T13:06:26.732Z,100996.03
2018-02-25T13:08:52.692Z,101001.77
2018-02-25T13:11:18.668Z,100992.50
2018-02-25T13:13:44.616Z,100995.77
2018-02-25T13:16:10.649Z,100993.67
2018-02-25T13:18:36.635Z,100992.43
2018-02-25T13:21:02.595Z,100986.68
2018-02-25T13:23:30.603Z,100989.08
2018-02-25T13:25:56.553Z,100988.63
2018-02-25T13:28:22.517Z,100983.33
2018-02-25T13:30:48.467Z,100976.06
2018-02-25T13:33:14.421Z,100975.84
2018-02-25T13:35:40.388Z,100973.04
2018-02-25T13:38:06.367Z,100982.05
2018-02-25T13:40:32.319Z,100978.81
2018-02-25T13:42:58.263Z,100975.63
2018-02-25T13:45:24.223Z,100982.39
2018-02-25T13:47:50.191Z,100982.71
2018-02-25T13:50:16.245Z,100978.50
2018-02-25T13:52:42.189Z,100973.80
2018-02-25T13:55:08.148Z,100977.88
2018-02-25T13:57:34.116Z,100972.64
2018-02-25T14:00:00.159Z,100977.64
2018-02-25T14:02:26.111Z,100968.73
2018-02-25T14:04:52.065Z,100980.16
2018-02-25T14:07:18.017Z,100976.53
2018-02-25T14:09:43.961Z,100973.52
2018-02-25T14:12:09.900Z,100972.97
2018-02-25T14:14:35.909Z,100971.63
2018-02-25T14:17:01.865Z,100943.33
2018-02-25T14:19:27.807Z,100974.27
2018-02-25T14:21:53.783Z,100970.81
2018-02-25T14:24:19.721Z,100965.73
2018-02-25T14:26:45.673Z,100970.42
2018-02-25T14:29:11.649Z,100971.22
2018-02-25T14:31:37.616Z,100968.50
2018-02-25T14:34:03.691Z,100974.56
2018-02-25T14:36:29.686Z,100966.30
2018-02-25T14:38:55.637Z,100973.91
2018-02-25T14:41:21.579Z,100964.86
2018-02-25T14:43:47.555Z,100962.02
2018-02-25T14:46:13.490Z,100975.33
2018-02-25T14:48:39.737Z,100974.52
2018-02-25T14:51:05.672Z,100975.22
2018-02-25T14:53:31.674Z,100968.49
2018-02-25T14:56:00.882Z,100963.52
2018-02-25T14:58:26.840Z,100965.22
2018-02-25T15:00:52.792Z,100968.68
2018-02-25T15:03:18.736Z,100971.63
2018-02-25T15:05:44.728Z,100971.15
2018-02-25T15:08:10.696Z,100973.91
2018-02-25T15:10:36.659Z,100971.56
2018-02-25T15:13:02.606Z,100972.12
2018-02-25T15:15:28.552Z,100959.08
2018-02-25T15:17:54.554Z,100964.23
2018-02-25T15:20:20.510Z,100972.97
2018-02-25T15:22:46.492Z,100962.17
2018-02-25T15:25:12.444Z,100955.84
2018-02-25T15:27:38.437Z,100972.46
2018-02-25T15:30:04.381Z,100970.42
2018-02-25T15:32:30.337Z,100972.86
2018-02-25T15:34:56.287Z,100968.13
2018-02-25T15:37:22.236Z,100972.89
2018-02-25T15:39:48.182Z,100968.49
2018-02-25T15:42:14.192Z,100973.26
2018-02-25T15:44:40.216Z,100971.04
2018-02-25T15:47:06.167Z,100970.05
2018-02-25T15:49:32.175Z,100963.48
2018-02-25T15:51:58.175Z,100968.13
2018-02-25T15:54:24.124Z,100966.75
2018-02-25T15:56:50.062Z,100972.06
2018-02-25T15:59:16.042Z,100967.52
2018-02-25T16:01:41.991Z,100966.09
2018-02-25T16:04:07.968Z,100969.19
2018-02-25T16:06:34.004Z,100969.70
2018-02-25T16:08:59.937Z,100971.15
2018-02-25T16:11:25.921Z,100981.86
2018-02-25T16:13:51.834Z,100982.02
2018-02-25T16:16:17.782Z,100977.77
2018-02-25T16:18:43.721Z,100975.59
2018-02-25T16:21:09.652Z,100973.15
2018-02-25T16:23:35.588Z,100978.35
2018-02-25T16:26:01.550Z,100983.72
2018-02-25T16:28:27.503Z,100982.48
2018-02-25T16:30:53.468Z,100969.28
2018-02-25T16:33:19.394Z,100975.26
2018-02-25T16:35:45.330Z,100984.08
2018-02-25T16:38:11.279Z,100986.69
2018-02-25T16:40:37.326Z,100982.38
2018-02-25T16:43:03.284Z,100987.62
2018-02-25T16:45:29.216Z,100987.65
2018-02-25T16:47:55.160Z,100987.67
2018-02-25T16:50:21.111Z,100985.07
2018-02-25T16:52:47.051Z,100984.09
2018-02-25T16:55:13.058Z,100991.52
2018-02-25T16:57:39.006Z,100989.30
2018-02-25T17:00:04.959Z,100995.86
2018-02-25T17:02:30.933Z,100992.00
2018-02-25T17:04:56.880Z,100996.34
2018-02-25T17:07:22.869Z,100995.75
2018-02-25T17:09:48.826Z,100999.34
2018-02-25T17:12:14.767Z,101000.07
2018-02-25T17:14:40.716Z,101006.58
2018-02-25T17:17:06.689Z,101011.48
2018-02-25T17:19:32.714Z,101004.64
2018-02-25T17:21:58.676Z,101012.48
2018-02-25T17:24:24.615Z,101008.30
2018-02-25T17:26:50.571Z,100993.23
2018-02-25T17:29:16.501Z,101014.12
2018-02-25T17:31:42.469Z,101015.22
2018-02-25T17:34:08.423Z,101018.22
2018-02-25T17:36:34.458Z,101017.78
2018-02-25T17:39:00.496Z,101022.59
2018-02-25T17:41:26.486Z,101020.28
2018-02-25T17:43:52.439Z,101015.03
2018-02-25T17:46:18.433Z,101014.51
2018-02-25T17:48:44.372Z,101021.56
2018-02-25T17:51:10.472Z,101022.34
2018-02-25T17:53:36.430Z,101023.41
2018-02-25T17:56:02.394Z,101022.36
2018-02-25T17:58:28.336Z,101017.70
2018-02-25T18:00:54.317Z,101014.10
2018-02-25T18:03:20.256Z,101017.97
2018-02-25T18:05:46.209Z,101020.50
2018-02-25T18:08:12.245Z,101016.90
2018-02-25T18:10:38.333Z,101017.91
2018-02-25T18:13:04.250Z,101017.31
2018-02-25T18:15:30.187Z,101022.41
2018-02-25T18:17:56.123Z,101019.02
2018-02-25T18:20:22.165Z,101019.19
2018-02-25T18:22:48.057Z,101017.17
2018-02-25T18:25:14.028Z,101016.06
2018-02-25T18:27:39.981Z,101021.36
2018-02-25T18:30:05.927Z,101020.18
2018-02-25T18:32:31.857Z,101028.12
2018-02-25T18:34:57.797Z,101029.84
2018-02-25T18:37:23.728Z,101023.59
2018-02-25T18:39:49.683Z,101026.22
2018-02-25T18:42:15.621Z,101018.80
2018-02-25T18:44:41.576Z,101029.91
2018-02-25T18:47:07.545Z,101033.98
2018-02-25T18:49:33.516Z,101034.84
2018-02-25T18:51:59.467Z,101032.95
2018-02-25T18:54:25.442Z,101032.52
2018-02-25T18:56:51.388Z,101036.91
2018-02-25T18:59:17.345Z,101033.45
2018-02-25T19:01:43.284Z,101038.05
2018-02-25T19:04:09.235Z,101035.41
2018-02-25T19:06:35.234Z,101041.53
2018-02-25T19:09:01.168Z,101037.06
2018-02-25T19:11:27.127Z,101039.02
2018-02-25T19:13:53.068Z,101033.89
2018-02-25T19:16:19.005Z,101034.59
2018-02-25T19:18:44.975Z,101029.55
2018-02-25T19:21:10.924Z,101034.09
2018-02-25T19:23:36.880Z,101030.11
2018-02-25T19:26:02.850Z,101037.16
2018-02-25T19:28:28.810Z,101031.98
2018-02-25T19:31:00.792Z,101036.61
2018-02-25T19:33:26.727Z,101028.20
2018-02-25T19:35:52.677Z,101024.86
2018-02-25T19:38:18.657Z,101022.59
2018-02-25T19:40:44.665Z,101023.48
2018-02-25T19:43:10.606Z,101028.73
2018-02-25T19:45:36.565Z,101029.31
2018-02-25T19:48:02.507Z,101028.30
2018-02-25T19:50:28.459Z,101028.31
2018-02-25T19:52:54.405Z,101031.08
2018-02-25T19:55:20.355Z,101035.70
2018-02-25T19:57:46.397Z,101034.64
2018-02-25T20:00:12.343Z,101028.84
2018-02-25T20:02:38.304Z,101026.67
2018-02-25T20:05:04.255Z,101029.20
2018-02-25T20:07:30.264Z,101031.14
2018-02-25T20:09:56.170Z,101025.41
2018-02-25T20:12:22.127Z,101026.92
2018-02-25T20:14:48.070Z,101023.95
2018-02-25T20:17:14.037Z,101025.42
2018-02-25T20:19:40.013Z,101026.73
2018-02-25T20:22:05.981Z,101028.33
2018-02-25T20:24:31.953Z,101030.55
2018-02-25T20:26:57.934Z,101029.31
2018-02-25T20:29:23.895Z,101027.90
2018-02-25T20:31:49.847Z,101025.31
2018-02-25T20:34:15.899Z,101024.09
2018-02-25T20:36:41.859Z,101014.80
2018-02-25T20:39:07.807Z,101022.20
2018-02-25T20:41:33.797Z,101024.66
2018-02-25T20:43:59.749Z,101021.03
2018-02-25T20:46:25.741Z,101024.44
2018-02-25T20:48:51.693Z,101017.64
2018-02-25T20:51:17.631Z,101016.44
2018-02-25T20:53:43.589Z,101025.91
2018-02-25T20:56:10.087Z,101022.08
2018-02-25T20:58:36.029Z,101021.45
2018-02-25T21:01:02.023Z,101026.64
2018-02-25T21:03:27.967Z,101023.16
2018-02-25T21:05:53.923Z,101021.84
2018-02-25T21:08:19.886Z,101024.95
2018-02-25T21:10:45.844Z,101022.64
2018-02-25T21:13:11.783Z,101024.80
2018-02-25T21:15:37.742Z,101023.28
2018-02-25T21:18:03.676Z,101022.77
2018-02-25T21:20:31.727Z,101031.59
2018-02-25T21:22:57.770Z,101025.06
2018-02-25T21:25:23.760Z,101030.99
2018-02-25T21:27:49.725Z,101028.53
2018-02-25T21:30:15.717Z,101029.33
2018-02-25T21:32:41.763Z,101026.19
2018-02-25T21:35:07.733Z,101029.01
2018-02-25T21:37:33.663Z,101023.20
2018-02-25T21:39:59.626Z,101028.57
2018-02-25T21:42:25.576Z,101027.02
2018-02-25T21:44:51.519Z,101020.14
2018-02-25T21:47:17.459Z,101023.39
2018-02-25T21:49:43.482Z,101016.63
2018-02-25T21:52:09.463Z,101013.29
2018-02-25T21:54:35.426Z,101015.08
2018-02-25T21:57:01.376Z,101016.79
2018-02-25T21:59:27.316Z,101021.17
2018-02-25T22:01:53.256Z,101014.47
2018-02-25T22:04:19.202Z,101007.35
2018-02-25T22:06:45.162Z,101011.27
2018-02-25T22:09:11.110Z,101005.44
2018-02-25T22:11:37.055Z,101002.51
2018-02-25T22:14:03.004Z,101004.30
2018-02-25T22:16:28.949Z,101004.78
2018-02-25T22:18:54.899Z,101005.93
2018-02-25T22:21:20.856Z,101003.42
2018-02-25T22:23:46.850Z,101001.34
2018-02-25T22:26:12.760Z,100999.66
2018-02-25T22:28:38.700Z,101000.58
2018-02-25T22:31:04.660Z,101000.45
2018-02-25T22:33:30.595Z,101004.64
2018-02-25T22:35:56.522Z,101004.14
2018-02-25T22:38:22.462Z,100997.69
2018-02-25T22:40:48.429Z,100992.70
2018-02-25T22:43:14.354Z,100992.30
2018-02-25T22:45:40.339Z,100998.45
2018-02-25T22:48:06.287Z,100998.67
2018-02-25T22:50:32.226Z,100993.72
2018-02-25T22:52:58.159Z,100994.52
2018-02-25T22:55:24.098Z,101000.59
2018-02-25T22:57:50.103Z,100994.05
2018-02-25T23:00:16.042Z,100985.86
2018-02-25T23:02:41.988Z,100991.39
2018-02-25T23:05:07.956Z,100989.30
2018-02-25T23:07:33.898Z,100987.17
2018-02-25T23:09:59.840Z,100994.97
2018-02-25T23:12:25.790Z,100988.55
2018-02-25T23:14:51.740Z,100990.11
2018-02-25T23:17:17.682Z,100988.11
2018-02-25T23:19:43.622Z,100996.52
2018-02-25T23:22:09.552Z,100993.95
2018-02-25T23:24:35.506Z,100996.23
2018-02-25T23:27:01.440Z,100994.02
2018-02-25T23:29:27.372Z,100991.62
2018-02-25T23:31:53.320Z,100993.81
2018-02-25T23:34:19.250Z,100988.07
2018-02-25T23:36:45.212Z,100988.73
2018-02-25T23:39:11.184Z,100983.05
2018-02-25T23:41:37.216Z,100982.55
2018-02-25T23:44:03.152Z,100983.89
2018-02-25T23:46:29.098Z,100980.06
2018-02-25T23:48:55.052Z,100978.22
2018-02-25T23:51:21.014Z,100979.33
2018-02-25T23:53:46.946Z,100982.09
2018-02-25T23:56:12.910Z,100982.09
2018-02-25T23:58:38.851Z,100979.36
